sensor_id;sensor_type;location;lat;lon;timestamp;P1;durP1;ratioP1;P2;durP2;ratioP2
6941;SDS011;3510;43.200;27.920;2023-08-07T11:09:28;2.03;;;1.90;;
6941;SDS011;3510;43.200;27.920;2023-08-07T11:11:55;2.35;;;2.25;;
6941;SDS011;3510;43.200;27.920;2023-08-07T11:14:22;2.05;;;1.95;;
6941;SDS011;3510;43.200;27.920;2023-08-07T11:16:50;2.08;;;1.98;;
6941;SDS011;3510;43.200;27.920;2023-08-07T11:19:27;1.92;;;1.83;;
6941;SDS011;3510;43.200;27.920;2023-08-07T11:21:55;2.35;;;1.80;;
6941;SDS011;3510;43.200;27.920;2023-08-07T11:24:23;1.60;;;1.58;;
6941;SDS011;3510;43.200;27.920;2023-08-07T11:26:53;3.70;;;1.88;;
6941;SDS011;3510;43.200;27.920;2023-08-07T11:29:22;1.67;;;1.65;;
6941;SDS011;3510;43.200;27.920;2023-08-07T11:31:51;1.92;;;1.83;;
6941;SDS011;3510;43.200;27.920;2023-08-07T11:34:18;1.42;;;1.42;;
6941;SDS011;3510;43.200;27.920;2023-08-07T11:36:45;2.17;;;1.70;;
6941;SDS011;3510;43.200;27.920;2023-08-07T11:39:13;1.98;;;1.60;;
6941;SDS011;3510;43.200;27.920;2023-08-07T11:41:42;2.38;;;1.85;;
6941;SDS011;3510;43.200;27.920;2023-08-07T11:44:09;2.95;;;2.10;;
6941;SDS011;3510;43.200;27.920;2023-08-07T11:46:36;1.90;;;1.80;;
6941;SDS011;3510;43.200;27.920;2023-08-07T11:49:04;1.95;;;1.85;;
6941;SDS011;3510;43.200;27.920;2023-08-07T11:51:32;2.15;;;1.80;;
6941;SDS011;3510;43.200;27.920;2023-08-07T11:54:00;1.50;;;1.50;;
6941;SDS011;3510;43.200;27.920;2023-08-07T11:56:27;2.25;;;1.77;;
6941;SDS011;3510;43.200;27.920;2023-08-07T11:59:01;1.70;;;1.60;;
6941;SDS011;3510;43.200;27.920;2023-08-07T12:01:29;5.38;;;2.03;;
6941;SDS011;3510;43.200;27.920;2023-08-07T12:03:56;2.22;;;2.13;;
6941;SDS011;3510;43.200;27.920;2023-08-07T12:09:08;2.03;;;1.92;;
6941;SDS011;3510;43.200;27.920;2023-08-07T12:11:40;2.00;;;1.90;;
6941;SDS011;3510;43.200;27.920;2023-08-07T12:14:13;2.30;;;2.20;;
6941;SDS011;3510;43.200;27.920;2023-08-07T12:16:43;1.73;;;1.73;;
6941;SDS011;3510;43.200;27.920;2023-08-07T12:19:10;2.10;;;2.00;;
6941;SDS011;3510;43.200;27.920;2023-08-07T12:21:38;1.98;;;1.70;;
6941;SDS011;3510;43.200;27.920;2023-08-07T12:24:06;2.33;;;2.22;;
6941;SDS011;3510;43.200;27.920;2023-08-07T12:26:35;2.28;;;2.17;;
6941;SDS011;3510;43.200;27.920;2023-08-07T12:29:02;2.72;;;2.45;;
6941;SDS011;3510;43.200;27.920;2023-08-07T12:31:29;2.75;;;2.30;;
6941;SDS011;3510;43.200;27.920;2023-08-07T12:33:56;3.30;;;2.60;;
6941;SDS011;3510;43.200;27.920;2023-08-07T12:36:23;2.67;;;2.47;;
6941;SDS011;3510;43.200;27.920;2023-08-07T12:38:53;2.08;;;1.98;;
6941;SDS011;3510;43.200;27.920;2023-08-07T12:41:21;1.92;;;1.92;;
6941;SDS011;3510;43.200;27.920;2023-08-07T12:43:49;3.67;;;2.22;;
6941;SDS011;3510;43.200;27.920;2023-08-07T12:46:16;3.25;;;1.77;;
6941;SDS011;3510;43.200;27.920;2023-08-07T12:48:43;4.20;;;2.08;;
6941;SDS011;3510;43.200;27.920;2023-08-07T12:51:12;2.25;;;2.00;;
6941;SDS011;3510;43.200;27.920;2023-08-07T12:53:59;3.03;;;2.83;;
6941;SDS011;3510;43.200;27.920;2023-08-07T12:56:26;2.28;;;2.17;;
6941;SDS011;3510;43.200;27.920;2023-08-07T12:58:54;7.50;;;2.72;;
6941;SDS011;3510;43.200;27.920;2023-08-07T13:01:21;2.50;;;2.40;;
6941;SDS011;3510;43.200;27.920;2023-08-07T13:03:48;1.67;;;1.67;;
6941;SDS011;3510;43.200;27.920;2023-08-07T13:08:57;2.63;;;1.92;;
6941;SDS011;3510;43.200;27.920;2023-08-07T13:11:25;2.00;;;2.00;;
6941;SDS011;3510;43.200;27.920;2023-08-07T13:16:36;2.15;;;1.70;;
6941;SDS011;3510;43.200;27.920;2023-08-07T13:19:07;2.60;;;1.90;;
6941;SDS011;3510;43.200;27.920;2023-08-07T13:21:34;2.25;;;2.15;;
6941;SDS011;3510;43.200;27.920;2023-08-07T13:24:03;2.00;;;1.90;;
6941;SDS011;3510;43.200;27.920;2023-08-07T13:26:30;2.00;;;2.00;;
6941;SDS011;3510;43.200;27.920;2023-08-07T13:29:15;1.80;;;1.70;;
6941;SDS011;3510;43.200;27.920;2023-08-07T13:31:42;5.68;;;2.10;;
6941;SDS011;3510;43.200;27.920;2023-08-07T13:34:11;2.00;;;1.90;;
6941;SDS011;3510;43.200;27.920;2023-08-07T13:36:38;2.35;;;1.90;;
6941;SDS011;3510;43.200;27.920;2023-08-07T13:39:05;1.90;;;1.80;;
6941;SDS011;3510;43.200;27.920;2023-08-07T13:41:32;3.15;;;1.83;;
6941;SDS011;3510;43.200;27.920;2023-08-07T13:44:00;2.25;;;2.15;;
6941;SDS011;3510;43.200;27.920;2023-08-07T13:46:28;4.95;;;2.20;;
6941;SDS011;3510;43.200;27.920;2023-08-07T13:48:55;2.25;;;2.15;;
6941;SDS011;3510;43.200;27.920;2023-08-07T13:51:22;3.17;;;1.98;;
6941;SDS011;3510;43.200;27.920;2023-08-07T13:53:49;2.47;;;2.28;;
6941;SDS011;3510;43.200;27.920;2023-08-07T13:56:17;2.33;;;2.22;;
6941;SDS011;3510;43.200;27.920;2023-08-07T13:58:47;2.13;;;2.03;;
6941;SDS011;3510;43.200;27.920;2023-08-07T14:01:21;2.00;;;1.75;;
6941;SDS011;3510;43.200;27.920;2023-08-07T14:03:50;2.08;;;1.90;;
6941;SDS011;3510;43.200;27.920;2023-08-07T14:06:16;1.80;;;1.80;;
6941;SDS011;3510;43.200;27.920;2023-08-07T14:08:43;2.55;;;2.45;;
6941;SDS011;3510;43.200;27.920;2023-08-07T14:11:24;4.57;;;3.42;;
6941;SDS011;3510;43.200;27.920;2023-08-07T14:14:05;2.50;;;2.40;;
6941;SDS011;3510;43.200;27.920;2023-08-07T14:16:31;3.63;;;2.25;;
6941;SDS011;3510;43.200;27.920;2023-08-07T14:19:00;5.13;;;2.90;;
6941;SDS011;3510;43.200;27.920;2023-08-07T14:21:26;2.28;;;2.15;;
6941;SDS011;3510;43.200;27.920;2023-08-07T14:23:53;6.13;;;2.30;;
6941;SDS011;3510;43.200;27.920;2023-08-07T14:26:21;2.78;;;2.42;;
6941;SDS011;3510;43.200;27.920;2023-08-07T14:28:48;2.30;;;2.20;;
6941;SDS011;3510;43.200;27.920;2023-08-07T14:31:14;2.88;;;2.50;;
6941;SDS011;3510;43.200;27.920;2023-08-07T14:33:41;2.28;;;2.17;;
6941;SDS011;3510;43.200;27.920;2023-08-07T14:36:09;2.30;;;2.10;;
6941;SDS011;3510;43.200;27.920;2023-08-07T14:38:36;2.63;;;2.30;;
6941;SDS011;3510;43.200;27.920;2023-08-07T14:41:02;4.15;;;2.30;;
6941;SDS011;3510;43.200;27.920;2023-08-07T14:43:31;3.00;;;2.58;;
6941;SDS011;3510;43.200;27.920;2023-08-07T14:45:58;2.47;;;2.30;;
6941;SDS011;3510;43.200;27.920;2023-08-07T14:48:25;2.60;;;2.50;;
6941;SDS011;3510;43.200;27.920;2023-08-07T14:50:52;2.65;;;2.55;;
6941;SDS011;3510;43.200;27.920;2023-08-07T14:53:22;2.88;;;2.45;;
6941;SDS011;3510;43.200;27.920;2023-08-07T14:55:50;2.97;;;2.65;;
6941;SDS011;3510;43.200;27.920;2023-08-07T14:58:17;6.18;;;2.70;;
6941;SDS011;3510;43.200;27.920;2023-08-07T15:00:44;5.45;;;2.30;;
6941;SDS011;3510;43.200;27.920;2023-08-07T15:03:11;3.53;;;2.70;;
6941;SDS011;3510;43.200;27.920;2023-08-07T15:05:38;2.63;;;2.45;;
6941;SDS011;3510;43.200;27.920;2023-08-07T15:08:05;2.60;;;2.50;;
6941;SDS011;3510;43.200;27.920;2023-08-07T15:10:33;5.38;;;2.40;;
6941;SDS011;3510;43.200;27.920;2023-08-07T15:13:00;2.50;;;2.40;;
6941;SDS011;3510;43.200;27.920;2023-08-07T15:15:27;6.35;;;2.50;;
6941;SDS011;3510;43.200;27.920;2023-08-07T15:17:54;2.55;;;2.45;;
6941;SDS011;3510;43.200;27.920;2023-08-07T15:20:21;2.53;;;2.40;;
6941;SDS011;3510;43.200;27.920;2023-08-07T15:22:49;2.60;;;2.40;;
6941;SDS011;3510;43.200;27.920;2023-08-07T15:25:16;4.13;;;2.50;;
6941;SDS011;3510;43.200;27.920;2023-08-07T15:27:55;2.42;;;2.28;;
6941;SDS011;3510;43.200;27.920;2023-08-07T15:30:26;2.10;;;2.10;;
6941;SDS011;3510;43.200;27.920;2023-08-07T15:32:54;3.13;;;2.80;;
6941;SDS011;3510;43.200;27.920;2023-08-07T15:35:21;2.40;;;2.20;;
6941;SDS011;3510;43.200;27.920;2023-08-07T15:37:48;2.42;;;2.33;;
6941;SDS011;3510;43.200;27.920;2023-08-07T15:40:15;4.18;;;2.80;;
6941;SDS011;3510;43.200;27.920;2023-08-07T15:42:42;2.40;;;2.30;;
6941;SDS011;3510;43.200;27.920;2023-08-07T15:45:18;2.85;;;2.75;;
6941;SDS011;3510;43.200;27.920;2023-08-07T15:47:46;3.58;;;3.13;;
6941;SDS011;3510;43.200;27.920;2023-08-07T15:50:13;2.92;;;2.83;;
6941;SDS011;3510;43.200;27.920;2023-08-07T15:52:40;3.00;;;2.90;;
6941;SDS011;3510;43.200;27.920;2023-08-07T15:55:08;3.50;;;3.20;;
6941;SDS011;3510;43.200;27.920;2023-08-07T15:57:35;2.83;;;2.67;;
6941;SDS011;3510;43.200;27.920;2023-08-07T16:00:02;2.70;;;2.60;;
6941;SDS011;3510;43.200;27.920;2023-08-07T16:02:31;2.58;;;2.47;;
6941;SDS011;3510;43.200;27.920;2023-08-07T16:04:58;3.03;;;2.83;;
6941;SDS011;3510;43.200;27.920;2023-08-07T16:07:25;3.22;;;3.03;;
6941;SDS011;3510;43.200;27.920;2023-08-07T16:09:53;2.90;;;2.80;;
6941;SDS011;3510;43.200;27.920;2023-08-07T16:12:20;2.90;;;2.80;;
6941;SDS011;3510;43.200;27.920;2023-08-07T16:14:47;2.75;;;2.65;;
6941;SDS011;3510;43.200;27.920;2023-08-07T16:17:14;3.80;;;3.60;;
6941;SDS011;3510;43.200;27.920;2023-08-07T16:19:47;3.65;;;3.45;;
6941;SDS011;3510;43.200;27.920;2023-08-07T16:22:14;3.75;;;3.10;;
6941;SDS011;3510;43.200;27.920;2023-08-07T16:24:48;3.33;;;2.67;;
6941;SDS011;3510;43.200;27.920;2023-08-07T16:27:14;3.38;;;3.28;;
6941;SDS011;3510;43.200;27.920;2023-08-07T16:29:41;2.95;;;2.80;;
6941;SDS011;3510;43.200;27.920;2023-08-07T16:32:08;3.15;;;2.97;;
6941;SDS011;3510;43.200;27.920;2023-08-07T16:34:35;2.78;;;2.67;;
6941;SDS011;3510;43.200;27.920;2023-08-07T16:37:03;6.07;;;3.22;;
6941;SDS011;3510;43.200;27.920;2023-08-07T16:39:30;4.07;;;3.88;;
6941;SDS011;3510;43.200;27.920;2023-08-07T16:41:57;5.35;;;3.50;;
6941;SDS011;3510;43.200;27.920;2023-08-07T16:44:23;4.00;;;3.78;;
6941;SDS011;3510;43.200;27.920;2023-08-07T16:46:50;3.95;;;3.70;;
6941;SDS011;3510;43.200;27.920;2023-08-07T16:49:17;2.75;;;2.55;;
6941;SDS011;3510;43.200;27.920;2023-08-07T16:51:44;2.20;;;2.20;;
6941;SDS011;3510;43.200;27.920;2023-08-07T16:54:12;2.90;;;2.70;;
6941;SDS011;3510;43.200;27.920;2023-08-07T16:56:39;3.17;;;3.08;;
6941;SDS011;3510;43.200;27.920;2023-08-07T16:59:06;4.03;;;2.70;;
6941;SDS011;3510;43.200;27.920;2023-08-07T17:01:33;4.20;;;2.40;;
6941;SDS011;3510;43.200;27.920;2023-08-07T17:04:00;2.70;;;2.50;;
6941;SDS011;3510;43.200;27.920;2023-08-07T17:06:27;3.40;;;3.10;;
6941;SDS011;3510;43.200;27.920;2023-08-07T17:08:54;5.35;;;4.30;;
6941;SDS011;3510;43.200;27.920;2023-08-07T17:11:23;9.18;;;6.53;;
6941;SDS011;3510;43.200;27.920;2023-08-07T17:14:04;6.22;;;5.63;;
6941;SDS011;3510;43.200;27.920;2023-08-07T17:18:57;5.05;;;4.60;;
6941;SDS011;3510;43.200;27.920;2023-08-07T17:21:25;6.40;;;4.68;;
6941;SDS011;3510;43.200;27.920;2023-08-07T17:23:52;5.72;;;4.18;;
6941;SDS011;3510;43.200;27.920;2023-08-07T17:26:19;7.37;;;4.03;;
6941;SDS011;3510;43.200;27.920;2023-08-07T17:38:18;16.15;;;9.45;;
6941;SDS011;3510;43.200;27.920;2023-08-07T17:40:45;34.15;;;17.23;;
6941;SDS011;3510;43.200;27.920;2023-08-07T17:43:13;28.45;;;21.20;;
6941;SDS011;3510;43.200;27.920;2023-08-07T17:45:40;7.63;;;7.03;;
